createdAt,value
2017-09-19T00:00:39.513Z,0
2017-09-19T00:01:48.380Z,0
2017-09-19T00:02:56.925Z,0
2017-09-19T00:04:05.470Z,0
2017-09-19T00:05:14.339Z,0
2017-09-19T00:06:23.202Z,0
2017-09-19T00:07:32.063Z,0
2017-09-19T00:08:40.604Z,0
2017-09-19T00:09:49.470Z,0
2017-09-19T00:10:58.986Z,0
2017-09-19T00:12:07.530Z,0
2017-09-19T00:13:16.074Z,0
2017-09-19T00:14:24.620Z,0
2017-09-19T00:15:33.485Z,0
2017-09-19T00:16:42.346Z,0
2017-09-19T00:17:51.539Z,0
2017-09-19T00:19:00.084Z,0
2017-09-19T00:20:08.626Z,0
2017-09-19T00:21:17.165Z,0
2017-09-19T00:22:25.711Z,0
2017-09-19T00:23:34.575Z,0
2017-09-19T00:24:43.119Z,0
2017-09-19T00:25:51.985Z,0
2017-09-19T00:27:01.502Z,0
2017-09-19T00:28:10.043Z,0
2017-09-19T00:29:20.441Z,0
2017-09-19T00:30:29.307Z,0
2017-09-19T00:31:37.849Z,0
2017-09-19T00:32:46.390Z,0
2017-09-19T00:33:55.574Z,0
2017-09-19T00:35:04.121Z,0
2017-09-19T00:36:12.985Z,0
2017-09-19T00:37:21.848Z,0
2017-09-19T00:38:30.714Z,0
2017-09-19T00:39:39.900Z,0
2017-09-19T00:40:48.438Z,0
2017-09-19T00:41:57.300Z,0
2017-09-19T00:43:06.164Z,0
2017-09-19T00:44:15.029Z,0
2017-09-19T00:45:23.572Z,0
2017-09-19T00:46:32.111Z,0
2017-09-19T00:47:40.652Z,0
2017-09-19T00:48:49.517Z,0
2017-09-19T00:49:58.377Z,0
2017-09-19T00:51:06.918Z,0
2017-09-19T00:52:15.460Z,0
2017-09-19T00:53:24.332Z,0
2017-09-19T00:54:32.866Z,0
2017-09-19T00:55:41.409Z,0
2017-09-19T00:56:49.952Z,0
2017-09-19T00:57:58.494Z,0
2017-09-19T00:59:07.038Z,0
2017-09-19T01:00:15.907Z,0
2017-09-19T01:01:24.451Z,0
2017-09-19T01:02:32.992Z,0
2017-09-19T01:03:41.537Z,0
2017-09-19T01:04:50.406Z,0
2017-09-19T01:05:58.949Z,0
2017-09-19T01:07:07.489Z,0
2017-09-19T01:08:16.351Z,0
2017-09-19T01:09:25.543Z,0
2017-09-19T01:10:34.732Z,0
2017-09-19T01:11:43.275Z,0
2017-09-19T01:12:51.818Z,0
2017-09-19T01:14:00.683Z,0
2017-09-19T01:15:09.231Z,0
2017-09-19T01:16:17.775Z,0
2017-09-19T01:17:27.291Z,0
2017-09-19T01:18:36.162Z,0
2017-09-19T01:19:44.705Z,0
2017-09-19T01:20:53.573Z,0
2017-09-19T01:22:02.444Z,0
2017-09-19T01:23:10.986Z,0
2017-09-19T01:24:19.526Z,0
2017-09-19T01:25:28.391Z,0
2017-09-19T01:26:37.579Z,0
2017-09-19T01:27:46.445Z,0
2017-09-19T01:28:54.985Z,0
2017-09-19T01:30:03.528Z,0
2017-09-19T01:31:12.070Z,0
2017-09-19T01:32:21.942Z,0
2017-09-19T01:33:30.810Z,0
2017-09-19T01:34:39.675Z,0
2017-09-19T01:35:48.221Z,0
2017-09-19T01:36:56.764Z,0
2017-09-19T01:38:05.308Z,0
2017-09-19T01:39:14.176Z,0
2017-09-19T01:40:23.046Z,0
2017-09-19T01:41:31.911Z,0
2017-09-19T01:42:40.778Z,0
2017-09-19T01:43:49.320Z,0
2017-09-19T01:44:57.862Z,0
2017-09-19T01:46:06.604Z,0
2017-09-19T01:47:15.469Z,0
2017-09-19T01:48:24.659Z,0
2017-09-19T01:49:33.851Z,0
2017-09-19T01:50:42.393Z,0
2017-09-19T01:51:51.257Z,0
2017-09-19T01:52:59.799Z,0
2017-09-19T01:54:08.669Z,0
2017-09-19T01:55:17.208Z,0
2017-09-19T01:56:26.080Z,0
2017-09-19T01:57:34.622Z,0
2017-09-19T01:58:43.487Z,0
2017-09-19T01:59:52.030Z,0
2017-09-19T02:01:00.571Z,0
2017-09-19T02:02:09.114Z,0
2017-09-19T02:03:17.655Z,0
2017-09-19T02:04:26.520Z,0
2017-09-19T02:05:35.393Z,0
2017-09-19T02:06:44.258Z,0
2017-09-19T02:07:52.803Z,0
2017-09-19T02:09:01.346Z,0
2017-09-19T02:10:09.891Z,0
2017-09-19T02:11:18.755Z,0
2017-09-19T02:12:27.621Z,0
2017-09-19T02:13:36.166Z,0
2017-09-19T02:14:44.709Z,0
2017-09-19T02:15:53.254Z,0
2017-09-19T02:17:01.795Z,0
2017-09-19T02:18:10.338Z,0
2017-09-19T02:19:18.883Z,0
2017-09-19T02:20:27.423Z,0
2017-09-19T02:21:36.283Z,0
2017-09-19T02:22:44.828Z,0
2017-09-19T02:23:53.405Z,0
2017-09-19T02:25:01.912Z,0
2017-09-19T02:26:10.776Z,0
2017-09-19T02:27:19.320Z,0
2017-09-19T02:28:28.510Z,0
2017-09-19T02:29:37.372Z,0
2017-09-19T02:30:46.563Z,0
2017-09-19T02:31:55.105Z,0
2017-09-19T02:33:04.290Z,0
2017-09-19T02:34:13.152Z,0
2017-09-19T02:35:21.694Z,0
2017-09-19T02:36:30.564Z,0
2017-09-19T02:37:39.428Z,0
2017-09-19T02:38:47.968Z,0
2017-09-19T02:39:56.838Z,0
2017-09-19T02:41:06.064Z,0
2017-09-19T02:42:14.609Z,0
2017-09-19T02:43:23.472Z,0
2017-09-19T02:44:32.015Z,0
2017-09-19T02:45:40.557Z,0
2017-09-19T02:46:49.423Z,0
2017-09-19T02:47:57.965Z,0
2017-09-19T02:49:06.504Z,0
2017-09-19T02:50:15.691Z,0
2017-09-19T02:51:24.560Z,0
2017-09-19T02:52:33.105Z,0
2017-09-19T02:53:41.653Z,0
2017-09-19T02:54:50.516Z,0
2017-09-19T02:55:59.060Z,0
2017-09-19T02:57:08.252Z,0
2017-09-19T02:58:17.445Z,0
2017-09-19T02:59:26.967Z,0
2017-09-19T03:00:35.510Z,0
2017-09-19T03:01:44.700Z,0
2017-09-19T03:02:53.564Z,0
2017-09-19T03:04:03.080Z,0
2017-09-19T03:05:11.947Z,0
2017-09-19T03:06:20.810Z,0
2017-09-19T03:07:29.351Z,0
2017-09-19T03:08:38.216Z,0
2017-09-19T03:09:46.781Z,0
2017-09-19T03:10:55.325Z,0
2017-09-19T03:12:03.875Z,0
2017-09-19T03:13:12.415Z,0
2017-09-19T03:14:21.927Z,0
2017-09-19T03:15:30.471Z,0
2017-09-19T03:16:39.339Z,0
2017-09-19T03:17:47.880Z,0
2017-09-19T03:18:57.395Z,0
2017-09-19T03:20:06.582Z,0
2017-09-19T03:21:15.446Z,0
2017-09-19T03:22:23.984Z,0
2017-09-19T03:23:33.172Z,0
2017-09-19T03:24:42.038Z,0
2017-09-19T03:25:50.580Z,0
2017-09-19T03:26:59.445Z,0
2017-09-19T03:28:07.989Z,0
2017-09-19T03:29:16.854Z,0
2017-09-19T03:30:25.720Z,0
2017-09-19T03:31:34.263Z,0
2017-09-19T03:32:42.806Z,0
2017-09-19T03:33:51.680Z,0
2017-09-19T03:35:00.544Z,0
2017-09-19T03:36:09.412Z,0
2017-09-19T03:37:17.952Z,0
2017-09-19T03:38:26.816Z,0
2017-09-19T03:39:35.680Z,0
2017-09-19T03:40:44.225Z,0
2017-09-19T03:41:52.767Z,0
2017-09-19T03:43:01.313Z,0
2017-09-19T03:44:09.855Z,0
2017-09-19T03:45:18.722Z,0
2017-09-19T03:46:27.265Z,0
2017-09-19T03:47:35.809Z,0
2017-09-19T03:48:44.999Z,0
2017-09-19T03:49:53.856Z,0
2017-09-19T03:51:02.399Z,0
2017-09-19T03:52:11.264Z,0
2017-09-19T03:53:20.132Z,0
2017-09-19T03:54:29.000Z,0
2017-09-19T03:55:37.862Z,0
2017-09-19T03:56:46.725Z,0
2017-09-19T03:57:55.266Z,0
2017-09-19T03:59:04.134Z,0
2017-09-19T04:00:13.000Z,0
2017-09-19T04:01:21.541Z,0
2017-09-19T04:02:30.082Z,0
2017-09-19T04:03:39.266Z,0
2017-09-19T04:04:47.806Z,0
2017-09-19T04:05:56.346Z,0
2017-09-19T04:07:05.539Z,0
2017-09-19T04:08:14.081Z,0
2017-09-19T04:09:22.624Z,0
2017-09-19T04:10:31.166Z,0
2017-09-19T04:11:39.706Z,0
2017-09-19T04:12:48.569Z,0
2017-09-19T04:13:57.762Z,0
2017-09-19T04:15:06.627Z,0
2017-09-19T04:16:15.498Z,0
2017-09-19T04:17:24.726Z,0
2017-09-19T04:18:33.266Z,0
2017-09-19T04:19:41.809Z,0
2017-09-19T04:20:50.351Z,0
2017-09-19T04:21:58.896Z,0
2017-09-19T04:23:07.764Z,0
2017-09-19T04:24:16.629Z,0
2017-09-19T04:25:25.508Z,0
2017-09-19T04:26:35.018Z,0
2017-09-19T04:27:43.561Z,0
2017-09-19T04:28:52.755Z,0
2017-09-19T04:30:01.300Z,0
2017-09-19T04:31:10.167Z,0
2017-09-19T04:32:19.032Z,0
2017-09-19T04:33:27.902Z,0
2017-09-19T04:34:36.446Z,0
2017-09-19T04:35:44.986Z,0
2017-09-19T04:36:53.848Z,0
2017-09-19T04:38:03.357Z,0
2017-09-19T04:39:12.222Z,0
2017-09-19T04:40:20.763Z,0
2017-09-19T04:41:29.626Z,0
2017-09-19T04:42:38.488Z,0
2017-09-19T04:43:47.032Z,0
2017-09-19T04:44:55.571Z,0
2017-09-19T04:46:04.438Z,0
2017-09-19T04:47:13.625Z,0
2017-09-19T04:48:24.172Z,0
2017-09-19T04:49:32.716Z,0
2017-09-19T04:50:41.261Z,0
2017-09-19T04:51:49.803Z,0
2017-09-19T04:52:58.347Z,4
2017-09-19T04:54:07.211Z,4
2017-09-19T04:55:16.401Z,0
2017-09-19T04:56:25.264Z,4
2017-09-19T04:57:34.780Z,0
2017-09-19T04:58:43.322Z,4
2017-09-19T04:59:51.860Z,4
2017-09-19T05:01:00.726Z,4
2017-09-19T05:02:09.597Z,8
2017-09-19T05:03:18.462Z,8
2017-09-19T05:04:27.004Z,8
2017-09-19T05:05:35.875Z,8
2017-09-19T05:06:44.741Z,8
2017-09-19T05:07:53.284Z,12
2017-09-19T05:09:01.824Z,16
2017-09-19T05:10:11.338Z,16
2017-09-19T05:11:20.201Z,20
2017-09-19T05:12:29.071Z,24
2017-09-19T05:13:37.939Z,28
2017-09-19T05:14:46.799Z,36
2017-09-19T05:15:55.669Z,36
2017-09-19T05:17:04.534Z,48
2017-09-19T05:18:13.398Z,52
2017-09-19T05:19:22.266Z,64
2017-09-19T05:20:31.783Z,68
2017-09-19T05:21:40.650Z,68
2017-09-19T05:22:49.200Z,72
2017-09-19T05:23:58.709Z,76
2017-09-19T05:25:07.897Z,88
2017-09-19T05:26:16.765Z,88
2017-09-19T05:27:25.951Z,84
2017-09-19T05:28:34.492Z,92
2017-09-19T05:29:43.032Z,116
2017-09-19T05:30:51.574Z,108
2017-09-19T05:32:00.760Z,104
2017-09-19T05:33:09.304Z,112
2017-09-19T05:34:18.172Z,116
2017-09-19T05:35:26.715Z,144
2017-09-19T05:36:35.260Z,164
2017-09-19T05:37:44.122Z,176
2017-09-19T05:38:52.998Z,176
2017-09-19T05:40:01.540Z,156
2017-09-19T05:41:10.085Z,156
2017-09-19T05:42:18.631Z,156
2017-09-19T05:43:27.495Z,168
2017-09-19T05:44:36.038Z,172
2017-09-19T05:45:44.577Z,180
2017-09-19T05:46:54.575Z,244
2017-09-19T05:48:03.764Z,268
2017-09-19T05:49:12.305Z,268
2017-09-19T05:50:21.172Z,260
2017-09-19T05:51:30.364Z,244
2017-09-19T05:52:38.973Z,260
2017-09-19T05:53:47.518Z,296
2017-09-19T05:54:56.385Z,348
2017-09-19T05:56:05.248Z,492
2017-09-19T05:57:13.791Z,636
2017-09-19T05:58:22.330Z,664
2017-09-19T05:59:31.196Z,708
2017-09-19T06:00:39.739Z,756
2017-09-19T06:01:48.281Z,732
2017-09-19T06:02:57.149Z,716
2017-09-19T06:04:06.016Z,708
2017-09-19T06:05:14.558Z,696
2017-09-19T06:06:23.101Z,672
2017-09-19T06:07:31.643Z,720
2017-09-19T06:08:40.183Z,756
2017-09-19T06:09:49.374Z,760
2017-09-19T06:10:58.236Z,788
2017-09-19T06:12:07.428Z,864
2017-09-19T06:13:15.970Z,860
2017-09-19T06:14:24.838Z,812
2017-09-19T06:15:34.028Z,836
2017-09-19T06:16:42.571Z,848
2017-09-19T06:17:51.441Z,820
2017-09-19T06:19:00.632Z,848
2017-09-19T06:20:09.500Z,880
2017-09-19T06:21:18.364Z,820
2017-09-19T06:22:27.388Z,856
2017-09-19T06:23:36.258Z,940
2017-09-19T06:24:45.450Z,944
2017-09-19T06:25:54.317Z,904
2017-09-19T06:27:02.858Z,872
2017-09-19T06:28:11.402Z,800
2017-09-19T06:29:19.942Z,688
2017-09-19T06:30:28.485Z,604
2017-09-19T06:31:37.030Z,836
2017-09-19T06:32:45.572Z,1040
2017-09-19T06:33:54.112Z,1272
2017-09-19T06:35:03.298Z,1140
2017-09-19T06:36:02.400Z,936
2017-09-19T06:37:11.263Z,844
2017-09-19T06:38:20.453Z,916
2017-09-19T06:39:29.567Z,868
2017-09-19T06:40:38.432Z,960
2017-09-19T06:41:46.974Z,1308
2017-09-19T06:42:55.838Z,1372
2017-09-19T06:44:05.031Z,1528
2017-09-19T06:45:13.575Z,1772
2017-09-19T06:46:22.762Z,1552
2017-09-19T06:47:31.307Z,1748
2017-09-19T06:48:40.179Z,1768
2017-09-19T06:49:49.025Z,1944
2017-09-19T06:50:58.031Z,1840
2017-09-19T06:52:07.280Z,1656
2017-09-19T06:53:16.229Z,1440
2017-09-19T06:54:25.455Z,1308
2017-09-19T06:55:34.706Z,1356
2017-09-19T06:56:45.350Z,1244
2017-09-19T06:57:55.668Z,1436
2017-09-19T06:59:05.875Z,1580
2017-09-19T07:00:15.167Z,1816
2017-09-19T07:01:23.812Z,2012
2017-09-19T07:02:32.825Z,2052
2017-09-19T07:03:41.722Z,2092
2017-09-19T07:04:50.573Z,1964
2017-09-19T07:05:59.757Z,1684
2017-09-19T07:07:08.619Z,1476
2017-09-19T07:08:17.509Z,1284
2017-09-19T07:09:26.353Z,1212
2017-09-19T07:10:34.898Z,1532
2017-09-19T07:11:43.763Z,1780
2017-09-19T07:12:52.949Z,2220
2017-09-19T07:14:01.817Z,2408
2017-09-19T07:15:10.359Z,2336
2017-09-19T07:16:19.632Z,1964
2017-09-19T07:17:28.495Z,1632
2017-09-19T07:18:37.363Z,1416
2017-09-19T07:19:46.236Z,1296
2017-09-19T07:20:54.779Z,1320
2017-09-19T07:22:03.645Z,1356
2017-09-19T07:23:12.187Z,1528
2017-09-19T07:24:20.732Z,1664
2017-09-19T07:25:29.723Z,1768
2017-09-19T07:26:39.006Z,1924
2017-09-19T07:27:48.193Z,2076
2017-09-19T07:28:56.738Z,2012
2017-09-19T07:30:05.954Z,1992
2017-09-19T07:31:15.470Z,1884
2017-09-19T07:32:24.662Z,2096
2017-09-19T07:33:33.715Z,2352
2017-09-19T07:34:42.568Z,2492
2017-09-19T07:35:51.524Z,2416
2017-09-19T07:37:00.069Z,2276
2017-09-19T07:38:08.936Z,2224
2017-09-19T07:39:17.477Z,2360
2017-09-19T07:40:26.352Z,2532
2017-09-19T07:41:35.219Z,2560
2017-09-19T07:42:43.766Z,2604
2017-09-19T07:43:52.627Z,2448
2017-09-19T07:45:01.176Z,2348
2017-09-19T07:46:09.716Z,2588
2017-09-19T07:47:18.907Z,2808
2017-09-19T07:48:27.509Z,2792
2017-09-19T07:49:36.384Z,2520
2017-09-19T07:50:45.249Z,2448
2017-09-19T07:51:54.126Z,2236
2017-09-19T07:53:02.692Z,1932
2017-09-19T07:54:11.890Z,1764
2017-09-19T07:55:20.438Z,1732
2017-09-19T07:56:29.311Z,1844
2017-09-19T07:57:38.179Z,1928
2017-09-19T07:58:47.057Z,1872
2017-09-19T07:59:55.622Z,1904
2017-09-19T08:01:04.813Z,1852
2017-09-19T08:02:13.682Z,1744
2017-09-19T08:03:22.549Z,1936
2017-09-19T08:04:31.417Z,2148
2017-09-19T08:05:39.969Z,2296
2017-09-19T08:06:49.354Z,2236
2017-09-19T08:07:57.959Z,2228
2017-09-19T08:09:06.502Z,2292
2017-09-19T08:10:15.373Z,2208
2017-09-19T08:11:24.564Z,2204
2017-09-19T08:12:33.750Z,2284
2017-09-19T08:13:42.296Z,2268
2017-09-19T08:14:50.838Z,2288
2017-09-19T08:15:59.713Z,2684
2017-09-19T08:17:09.305Z,3004
2017-09-19T08:18:18.724Z,3028
2017-09-19T08:19:27.680Z,2940
2017-09-19T08:20:36.590Z,2824
2017-09-19T08:21:45.589Z,2524
2017-09-19T08:22:54.498Z,2284
2017-09-19T08:24:03.043Z,2056
2017-09-19T08:25:11.910Z,1904
2017-09-19T08:26:20.775Z,1752
2017-09-19T08:27:30.290Z,1732
2017-09-19T08:28:39.153Z,1992
2017-09-19T08:29:47.699Z,2208
2017-09-19T08:30:56.246Z,2268
2017-09-19T08:32:05.114Z,2176
2017-09-19T08:33:13.659Z,2128
2017-09-19T08:34:22.199Z,2196
2017-09-19T08:35:31.401Z,2200
2017-09-19T08:36:40.274Z,2136
2017-09-19T08:37:48.811Z,2000
2017-09-19T08:38:57.678Z,1700
2017-09-19T08:40:06.221Z,1600
2017-09-19T08:41:14.768Z,1836
2017-09-19T08:42:23.380Z,2360
2017-09-19T08:43:31.929Z,3272
2017-09-19T08:44:40.796Z,4272
2017-09-19T08:45:49.340Z,4924
2017-09-19T08:46:57.887Z,5116
2017-09-19T08:48:06.756Z,4840
2017-09-19T08:49:15.688Z,4948
2017-09-19T08:50:24.306Z,5324
2017-09-19T08:51:32.850Z,5504
2017-09-19T08:52:41.719Z,5484
2017-09-19T08:53:50.267Z,5340
2017-09-19T08:54:59.128Z,5144
2017-09-19T08:56:07.671Z,4788
2017-09-19T08:57:16.540Z,4420
2017-09-19T08:58:25.083Z,4336
2017-09-19T08:59:34.271Z,3956
2017-09-19T09:00:43.136Z,3632
2017-09-19T09:01:52.112Z,3600
2017-09-19T09:03:01.131Z,3732
2017-09-19T09:04:10.141Z,4320
2017-09-19T09:05:18.840Z,4672
2017-09-19T09:06:27.709Z,4800
2017-09-19T09:07:36.900Z,4664
2017-09-19T09:08:45.769Z,4232
2017-09-19T09:09:54.644Z,4004
2017-09-19T09:11:03.187Z,3976
2017-09-19T09:12:11.732Z,3860
2017-09-19T09:13:20.279Z,3524
2017-09-19T09:14:29.478Z,3100
2017-09-19T09:15:38.677Z,2676
2017-09-19T09:16:47.249Z,2752
2017-09-19T09:17:56.446Z,2764
2017-09-19T09:19:05.638Z,3024
2017-09-19T09:20:14.505Z,3372
2017-09-19T09:21:23.293Z,3452
2017-09-19T09:22:32.387Z,3264
2017-09-19T09:23:41.285Z,3744
2017-09-19T09:24:49.850Z,3740
2017-09-19T09:25:59.624Z,3468
2017-09-19T09:27:08.883Z,3532
2017-09-19T09:28:18.588Z,3512
2017-09-19T09:29:28.196Z,3312
2017-09-19T09:30:37.409Z,3232
2017-09-19T09:31:46.277Z,2932
2017-09-19T09:32:54.818Z,2768
2017-09-19T09:34:03.691Z,2704
2017-09-19T09:35:12.559Z,2704
2017-09-19T09:36:21.424Z,2576
2017-09-19T09:37:30.393Z,2368
2017-09-19T09:38:39.646Z,2396
2017-09-19T09:39:48.520Z,2488
2017-09-19T09:40:57.384Z,2516
2017-09-19T09:42:06.277Z,2508
2017-09-19T09:43:14.820Z,2576
2017-09-19T09:44:23.366Z,2776
2017-09-19T09:45:32.233Z,2932
2017-09-19T09:46:40.778Z,3064
2017-09-19T09:47:49.975Z,3460
2017-09-19T09:48:59.169Z,3716
2017-09-19T09:50:08.129Z,3936
2017-09-19T09:51:16.674Z,4512
2017-09-19T09:52:25.220Z,5188
2017-09-19T09:53:33.764Z,6112
2017-09-19T09:54:42.310Z,6296
2017-09-19T09:55:51.179Z,6088
2017-09-19T09:57:00.046Z,5956
2017-09-19T09:58:08.593Z,5804
2017-09-19T09:59:17.461Z,5720
2017-09-19T10:00:26.327Z,5532
2017-09-19T10:01:34.873Z,5076
2017-09-19T10:02:43.741Z,5040
2017-09-19T10:03:52.606Z,4628
2017-09-19T10:05:01.157Z,4852
2017-09-19T10:06:09.703Z,4872
2017-09-19T10:07:18.570Z,4688
2017-09-19T10:08:27.114Z,4576
2017-09-19T10:09:36.312Z,4740
2017-09-19T10:10:44.858Z,4324
2017-09-19T10:11:53.403Z,3500
2017-09-19T10:13:01.954Z,2948
2017-09-19T10:14:10.819Z,2496
2017-09-19T10:15:20.127Z,2216
2017-09-19T10:16:29.448Z,1920
2017-09-19T10:17:38.537Z,1900
2017-09-19T10:18:47.735Z,2424
2017-09-19T10:19:56.282Z,2772
2017-09-19T10:21:05.189Z,3284
2017-09-19T10:22:14.279Z,3740
2017-09-19T10:23:23.547Z,4120
2017-09-19T10:24:32.422Z,4496
2017-09-19T10:25:40.970Z,5372
2017-09-19T10:26:49.942Z,4404
2017-09-19T10:27:58.581Z,3372
2017-09-19T10:29:07.772Z,2628
2017-09-19T10:30:16.639Z,2304
2017-09-19T10:31:25.183Z,2268
2017-09-19T10:32:34.053Z,2420
2017-09-19T10:33:43.244Z,2496
2017-09-19T10:34:51.789Z,2748
2017-09-19T10:36:01.660Z,2680
2017-09-19T10:37:10.199Z,2464
2017-09-19T10:38:19.067Z,2600
2017-09-19T10:39:27.606Z,2880
2017-09-19T10:40:36.148Z,2860
2017-09-19T10:41:45.015Z,2572
2017-09-19T10:42:54.204Z,2452
2017-09-19T10:44:03.074Z,2708
2017-09-19T10:45:12.268Z,2460
2017-09-19T10:46:21.135Z,2372
2017-09-19T10:47:30.008Z,2256
2017-09-19T10:48:38.874Z,2516
2017-09-19T10:49:47.416Z,2964
2017-09-19T10:50:55.966Z,3136
2017-09-19T10:52:05.159Z,3272
2017-09-19T10:53:14.023Z,3176
2017-09-19T10:54:23.213Z,3620
2017-09-19T10:55:31.756Z,3536
2017-09-19T10:56:40.624Z,3516
2017-09-19T10:57:49.835Z,3468
2017-09-19T10:58:58.679Z,3660
2017-09-19T11:00:07.547Z,4000
2017-09-19T11:01:16.739Z,4132
2017-09-19T11:02:25.933Z,4552
2017-09-19T11:03:34.799Z,4312
2017-09-19T11:04:43.346Z,3364
2017-09-19T11:05:51.887Z,3184
2017-09-19T11:07:00.762Z,3964
2017-09-19T11:08:09.954Z,4076
2017-09-19T11:09:19.142Z,4200
2017-09-19T11:10:27.697Z,4460
2017-09-19T11:11:36.231Z,4520
2017-09-19T11:12:45.111Z,4192
2017-09-19T11:13:54.308Z,3856
2017-09-19T11:15:02.850Z,3608
2017-09-19T11:16:11.394Z,4144
2017-09-19T11:17:20.268Z,5140
2017-09-19T11:18:29.166Z,5560
2017-09-19T11:19:38.033Z,5884
2017-09-19T11:20:46.577Z,6236
2017-09-19T11:21:55.119Z,6140
2017-09-19T11:23:04.307Z,5768
2017-09-19T11:24:12.990Z,5756
2017-09-19T11:25:21.922Z,5420
2017-09-19T11:26:30.466Z,5236
2017-09-19T11:27:39.010Z,5256
2017-09-19T11:28:47.555Z,5476
2017-09-19T11:29:56.104Z,5300
2017-09-19T11:31:04.652Z,4672
2017-09-19T11:32:14.168Z,4164
2017-09-19T11:33:23.362Z,4684
2017-09-19T11:34:31.911Z,5964
2017-09-19T11:35:41.102Z,7816
2017-09-19T11:36:49.982Z,8972
2017-09-19T11:37:58.849Z,10136
2017-09-19T11:39:07.718Z,10756
2017-09-19T11:40:16.583Z,10060
2017-09-19T11:41:25.448Z,9060
2017-09-19T11:42:33.993Z,8200
2017-09-19T11:43:42.861Z,8052
2017-09-19T11:44:51.733Z,8348
2017-09-19T11:46:00.316Z,7540
2017-09-19T11:47:08.821Z,6812
2017-09-19T11:48:17.690Z,7712
2017-09-19T11:49:26.558Z,8192
2017-09-19T11:50:35.102Z,8196
2017-09-19T11:51:43.975Z,8112
2017-09-19T11:52:52.520Z,7264
2017-09-19T11:54:02.035Z,6832
2017-09-19T11:55:11.230Z,6616
2017-09-19T11:56:20.444Z,7088
2017-09-19T11:57:28.992Z,7068
2017-09-19T11:58:37.877Z,7504
2017-09-19T11:59:46.743Z,7780
2017-09-19T12:00:56.256Z,8336
2017-09-19T12:02:05.459Z,8712
2017-09-19T12:03:14.326Z,8724
2017-09-19T12:04:23.200Z,9028
2017-09-19T12:05:33.139Z,8044
2017-09-19T12:06:41.689Z,7300
2017-09-19T12:07:50.557Z,6896
2017-09-19T12:08:59.761Z,7052
2017-09-19T12:10:08.308Z,7328
2017-09-19T12:11:16.852Z,7008
2017-09-19T12:12:25.400Z,6400
2017-09-19T12:13:33.948Z,5176
2017-09-19T12:14:42.492Z,5804
2017-09-19T12:15:51.785Z,7228
2017-09-19T12:17:00.652Z,8628
2017-09-19T12:18:09.849Z,9860
2017-09-19T12:19:18.721Z,9944
2017-09-19T12:20:27.590Z,10048
2017-09-19T12:21:36.151Z,10780
2017-09-19T12:22:44.702Z,11092
2017-09-19T12:23:54.394Z,10848
2017-09-19T12:25:02.940Z,9932
2017-09-19T12:26:12.133Z,10616
2017-09-19T12:27:20.677Z,9892
2017-09-19T12:28:29.225Z,9444
2017-09-19T12:29:38.419Z,8812
2017-09-19T12:30:46.964Z,7656
2017-09-19T12:31:55.834Z,6956
2017-09-19T12:33:04.380Z,7160
2017-09-19T12:34:13.246Z,7576
2017-09-19T12:35:22.121Z,8120
2017-09-19T12:36:30.666Z,9272
2017-09-19T12:37:39.536Z,9828
2017-09-19T12:38:49.061Z,10388
2017-09-19T12:39:58.257Z,10876
2017-09-19T12:41:07.446Z,10960
2017-09-19T12:42:16.641Z,11216
2017-09-19T12:43:25.511Z,10572
2017-09-19T12:44:34.701Z,9572
2017-09-19T12:45:43.896Z,7896
2017-09-19T12:46:52.442Z,6832
2017-09-19T12:48:01.313Z,6032
2017-09-19T12:49:09.862Z,7404
2017-09-19T12:50:18.732Z,8356
2017-09-19T12:51:27.276Z,8996
2017-09-19T12:52:35.820Z,9948
2017-09-19T12:53:45.013Z,10424
2017-09-19T12:54:53.557Z,10068
2017-09-19T12:56:02.103Z,8648
2017-09-19T12:57:10.648Z,8708
2017-09-19T12:58:19.200Z,8260
2017-09-19T12:59:28.069Z,7472
2017-09-19T13:00:37.528Z,7296
2017-09-19T13:01:46.396Z,6416
2017-09-19T13:02:55.265Z,6656
2017-09-19T13:04:03.816Z,6524
2017-09-19T13:05:12.361Z,6720
2017-09-19T13:06:21.236Z,6620
2017-09-19T13:07:29.780Z,6452
2017-09-19T13:08:38.324Z,6208
2017-09-19T13:09:47.192Z,6208
2017-09-19T13:10:56.062Z,5568
2017-09-19T13:12:04.606Z,5252
2017-09-19T13:13:13.473Z,5448
2017-09-19T13:14:22.351Z,5728
2017-09-19T13:15:31.164Z,5928
2017-09-19T13:16:40.384Z,6436
2017-09-19T13:17:48.948Z,7124
2017-09-19T13:18:57.819Z,7372
2017-09-19T13:20:07.824Z,6780
2017-09-19T13:21:17.495Z,6860
2017-09-19T13:22:26.472Z,6756
2017-09-19T13:23:35.801Z,6328
2017-09-19T13:24:44.671Z,5508
2017-09-19T13:25:53.539Z,5516
2017-09-19T13:27:02.733Z,6100
2017-09-19T13:28:11.277Z,5936
2017-09-19T13:29:20.146Z,6372
2017-09-19T13:30:29.016Z,6196
2017-09-19T13:31:38.530Z,5756
2017-09-19T13:32:47.400Z,4800
2017-09-19T13:33:56.274Z,4168
2017-09-19T13:35:05.466Z,3972
2017-09-19T13:36:14.341Z,4080
2017-09-19T13:37:22.891Z,3880
2017-09-19T13:38:31.880Z,4304
2017-09-19T13:39:40.424Z,4260
2017-09-19T13:40:49.846Z,4144
2017-09-19T13:41:58.772Z,4128
2017-09-19T13:43:07.638Z,4348
2017-09-19T13:44:16.193Z,5176
2017-09-19T13:45:24.741Z,6428
2017-09-19T13:46:33.615Z,6360
2017-09-19T13:47:42.161Z,5688
2017-09-19T13:48:51.032Z,4920
2017-09-19T13:49:59.908Z,4940
2017-09-19T13:51:08.456Z,5276
2017-09-19T13:52:17.646Z,5852
2017-09-19T13:53:26.621Z,5704
2017-09-19T13:54:35.191Z,4744
2017-09-19T13:55:43.973Z,3992
2017-09-19T13:56:52.519Z,3944
2017-09-19T13:58:01.386Z,4160
2017-09-19T13:59:09.932Z,4488
2017-09-19T14:00:18.478Z,4612
2017-09-19T14:01:27.351Z,4944
2017-09-19T14:02:35.896Z,5044
2017-09-19T14:03:44.440Z,5112
2017-09-19T14:04:52.984Z,4568
2017-09-19T14:06:02.821Z,3968
2017-09-19T14:07:11.690Z,3556
2017-09-19T14:08:20.239Z,3540
2017-09-19T14:09:29.110Z,3712
2017-09-19T14:10:37.655Z,4160
2017-09-19T14:11:46.528Z,4728
2017-09-19T14:12:55.729Z,5076
2017-09-19T14:14:04.603Z,5352
2017-09-19T14:15:13.475Z,5284
2017-09-19T14:16:22.362Z,5072
2017-09-19T14:17:30.910Z,5016
2017-09-19T14:18:39.455Z,4744
2017-09-19T14:19:48.327Z,4728
2017-09-19T14:20:56.872Z,4408
2017-09-19T14:22:05.417Z,4292
2017-09-19T14:23:14.611Z,4052
2017-09-19T14:24:23.160Z,4900
2017-09-19T14:25:32.354Z,4436
2017-09-19T14:26:41.222Z,4268
2017-09-19T14:27:49.765Z,4540
2017-09-19T14:28:58.633Z,4488
2017-09-19T14:30:07.504Z,4112
2017-09-19T14:31:16.732Z,3384
2017-09-19T14:32:25.674Z,3516
2017-09-19T14:33:34.876Z,3372
2017-09-19T14:34:43.419Z,2996
2017-09-19T14:35:51.965Z,2916
2017-09-19T14:37:00.513Z,2888
2017-09-19T14:38:09.063Z,2928
2017-09-19T14:39:17.929Z,3228
2017-09-19T14:40:26.478Z,3096
2017-09-19T14:41:35.346Z,3032
2017-09-19T14:42:43.893Z,3268
2017-09-19T14:43:52.690Z,3700
2017-09-19T14:45:01.558Z,3748
2017-09-19T14:46:10.427Z,3264
2017-09-19T14:47:19.300Z,3120
2017-09-19T14:48:28.167Z,3268
2017-09-19T14:49:36.713Z,3628
2017-09-19T14:50:45.261Z,3756
2017-09-19T14:51:53.815Z,3700
2017-09-19T14:53:02.685Z,3492
2017-09-19T14:54:11.238Z,3272
2017-09-19T14:55:20.437Z,3180
2017-09-19T14:56:29.631Z,3596
2017-09-19T14:57:38.822Z,3576
2017-09-19T14:58:47.689Z,3300
2017-09-19T14:59:56.561Z,3280
2017-09-19T15:01:05.108Z,3212
2017-09-19T15:02:13.973Z,3280
2017-09-19T15:03:22.840Z,3220
2017-09-19T15:04:32.035Z,3080
2017-09-19T15:05:40.907Z,2832
2017-09-19T15:06:49.777Z,2728
2017-09-19T15:07:58.414Z,2852
2017-09-19T15:09:07.406Z,3352
2017-09-19T15:10:15.950Z,2776
2017-09-19T15:11:24.495Z,2560
2017-09-19T15:12:33.362Z,2692
2017-09-19T15:13:42.468Z,2876
2017-09-19T15:14:51.195Z,2912
2017-09-19T15:15:59.745Z,2916
2017-09-19T15:17:08.937Z,2900
2017-09-19T15:18:17.481Z,2904
2017-09-19T15:19:26.028Z,2872
2017-09-19T15:20:34.896Z,2800
2017-09-19T15:21:43.442Z,2824
2017-09-19T15:22:51.987Z,2840
2017-09-19T15:24:00.854Z,2836
2017-09-19T15:25:09.397Z,2788
2017-09-19T15:26:18.264Z,2784
2017-09-19T15:27:26.811Z,2756
2017-09-19T15:28:35.676Z,2684
2017-09-19T15:29:44.543Z,2700
2017-09-19T15:30:53.087Z,2684
2017-09-19T15:32:02.279Z,2504
2017-09-19T15:33:10.826Z,2608
2017-09-19T15:34:19.691Z,2624
2017-09-19T15:35:28.235Z,2616
2017-09-19T15:36:37.108Z,2620
2017-09-19T15:37:46.295Z,2584
2017-09-19T15:38:55.166Z,2552
2017-09-19T15:40:04.033Z,2504
2017-09-19T15:41:12.899Z,2476
2017-09-19T15:42:21.444Z,2488
2017-09-19T15:43:30.313Z,2492
2017-09-19T15:44:39.181Z,2480
2017-09-19T15:45:47.728Z,2464
2017-09-19T15:46:56.598Z,2596
2017-09-19T15:48:05.787Z,2472
2017-09-19T15:49:14.656Z,2432
2017-09-19T15:50:23.528Z,2388